sensor_id;sensor_type;location;lat;lon;timestamp;pressure;altitude;pressure_sealevel;temperature;humidity
58927;BME280;44712;52.530;9.760;2023-02-21T00:01:40;101002.47;;;8.18;100.00
58927;BME280;44712;52.530;9.760;2023-02-21T00:04:26;100997.06;;;8.18;100.00
58927;BME280;44712;52.530;9.760;2023-02-21T00:07:12;100994.38;;;8.21;100.00
58927;BME280;44712;52.530;9.760;2023-02-21T00:09:57;100996.16;;;8.19;100.00
58927;BME280;44712;52.530;9.760;2023-02-21T00:12:43;100979.09;;;8.18;100.00
58927;BME280;44712;52.530;9.760;2023-02-21T00:15:28;100983.59;;;8.18;100.00
58927;BME280;44712;52.530;9.760;2023-02-21T00:18:13;100979.06;;;8.20;100.00
58927;BME280;44712;52.530;9.760;2023-02-21T00:20:58;100988.97;;;8.21;100.00
58927;BME280;44712;52.530;9.760;2023-02-21T00:23:44;100981.78;;;8.25;100.00
58927;BME280;44712;52.530;9.760;2023-02-21T00:26:30;100987.19;;;8.23;100.00
58927;BME280;44712;52.530;9.760;2023-02-21T00:29:15;100998.84;;;8.27;100.00
58927;BME280;44712;52.530;9.760;2023-02-21T00:32:01;101000.66;;;8.26;100.00
58927;BME280;44712;52.530;9.760;2023-02-21T00:34:46;100992.59;;;8.26;100.00
58927;BME280;44712;52.530;9.760;2023-02-21T00:37:31;101006.06;;;8.28;100.00
58927;BME280;44712;52.530;9.760;2023-02-21T00:40:17;101006.97;;;8.31;100.00
58927;BME280;44712;52.530;9.760;2023-02-21T00:43:02;101010.56;;;8.33;100.00
58927;BME280;44712;52.530;9.760;2023-02-21T00:45:48;101003.34;;;8.29;100.00
58927;BME280;44712;52.530;9.760;2023-02-21T00:48:36;101004.25;;;8.28;100.00
58927;BME280;44712;52.530;9.760;2023-02-21T00:51:21;100997.06;;;8.32;100.00
58927;BME280;44712;52.530;9.760;2023-02-21T00:54:06;101001.56;;;8.28;100.00
58927;BME280;44712;52.530;9.760;2023-02-21T00:56:51;100997.97;;;8.29;100.00
58927;BME280;44712;52.530;9.760;2023-02-21T00:59:36;101006.06;;;8.29;100.00
58927;BME280;44712;52.530;9.760;2023-02-21T01:02:21;101005.16;;;8.33;100.00
58927;BME280;44712;52.530;9.760;2023-02-21T01:05:07;100999.78;;;8.36;100.00
58927;BME280;44712;52.530;9.760;2023-02-21T01:07:52;100999.78;;;8.40;100.00
58927;BME280;44712;52.530;9.760;2023-02-21T01:10:39;100992.56;;;8.38;100.00
58927;BME280;44712;52.530;9.760;2023-02-21T01:13:25;101001.56;;;8.34;100.00
58927;BME280;44712;52.530;9.760;2023-02-21T01:16:10;100996.16;;;8.34;100.00
58927;BME280;44712;52.530;9.760;2023-02-21T01:18:55;101007.88;;;8.38;100.00
58927;BME280;44712;52.530;9.760;2023-02-21T01:21:41;100995.25;;;8.42;100.00
58927;BME280;44712;52.530;9.760;2023-02-21T01:24:26;100992.56;;;8.42;100.00
58927;BME280;44712;52.530;9.760;2023-02-21T01:27:12;100998.84;;;8.39;100.00
58927;BME280;44712;52.530;9.760;2023-02-21T01:29:57;100991.69;;;8.41;100.00
58927;BME280;44712;52.530;9.760;2023-02-21T01:32:43;100996.16;;;8.37;100.00
58927;BME280;44712;52.530;9.760;2023-02-21T01:35:28;101006.94;;;8.37;100.00
58927;BME280;44712;52.530;9.760;2023-02-21T01:38:13;101010.56;;;8.41;100.00
58927;BME280;44712;52.530;9.760;2023-02-21T01:40:59;100999.75;;;8.44;100.00
58927;BME280;44712;52.530;9.760;2023-02-21T01:44:03;101008.78;;;8.45;100.00
58927;BME280;44712;52.530;9.760;2023-02-21T01:46:52;101003.34;;;8.42;100.00
58927;BME280;44712;52.530;9.760;2023-02-21T01:49:39;101007.00;;;8.45;100.00
58927;BME280;44712;52.530;9.760;2023-02-21T01:52:24;101002.50;;;8.50;100.00
58927;BME280;44712;52.530;9.760;2023-02-21T01:55:11;101001.59;;;8.48;100.00
58927;BME280;44712;52.530;9.760;2023-02-21T01:57:56;101004.28;;;8.48;100.00
58927;BME280;44712;52.530;9.760;2023-02-21T02:00:42;101008.78;;;8.45;100.00
58927;BME280;44712;52.530;9.760;2023-02-21T02:03:29;101008.75;;;8.40;100.00
58927;BME280;44712;52.530;9.760;2023-02-21T02:06:16;100999.75;;;8.43;100.00
58927;BME280;44712;52.530;9.760;2023-02-21T02:09:17;101007.84;;;8.43;100.00
58927;BME280;44712;52.530;9.760;2023-02-21T02:15:22;101006.94;;;8.37;100.00
58927;BME280;44712;52.530;9.760;2023-02-21T02:18:07;101008.75;;;8.35;100.00
58927;BME280;44712;52.530;9.760;2023-02-21T02:29:13;101006.97;;;8.34;100.00
58927;BME280;44712;52.530;9.760;2023-02-21T02:40:23;101001.56;;;8.31;100.00
58927;BME280;44712;52.530;9.760;2023-02-21T02:43:01;100999.78;;;8.30;100.00
58927;BME280;44712;52.530;9.760;2023-02-21T02:48:12;101006.97;;;8.31;100.00
58927;BME280;44712;52.530;9.760;2023-02-21T02:50:40;101006.03;;;8.32;100.00
58927;BME280;44712;52.530;9.760;2023-02-21T02:53:07;101008.75;;;8.32;100.00
58927;BME280;44712;52.530;9.760;2023-02-21T02:55:41;101009.66;;;8.27;100.00
58927;BME280;44712;52.530;9.760;2023-02-21T02:58:11;100999.78;;;8.30;100.00
58927;BME280;44712;52.530;9.760;2023-02-21T03:00:43;100997.97;;;8.26;100.00
58927;BME280;44712;52.530;9.760;2023-02-21T03:06:04;100997.97;;;8.29;100.00
58927;BME280;44712;52.530;9.760;2023-02-21T03:08:54;100994.38;;;8.30;100.00
58927;BME280;44712;52.530;9.760;2023-02-21T03:11:24;100990.75;;;8.28;100.00
58927;BME280;44712;52.530;9.760;2023-02-21T03:14:14;100989.00;;;8.27;100.00
58927;BME280;44712;52.530;9.760;2023-02-21T03:16:46;100989.00;;;8.27;100.00
58927;BME280;44712;52.530;9.760;2023-02-21T03:19:21;100984.50;;;8.23;100.00
58927;BME280;44712;52.530;9.760;2023-02-21T03:21:58;100983.56;;;8.24;100.00
58927;BME280;44712;52.530;9.760;2023-02-21T03:24:26;100984.50;;;8.25;100.00
58927;BME280;44712;52.530;9.760;2023-02-21T03:27:02;100986.28;;;8.29;100.00
58927;BME280;44712;52.530;9.760;2023-02-21T03:30:09;100996.16;;;8.25;100.00
58927;BME280;44712;52.530;9.760;2023-02-21T03:32:48;100990.78;;;8.34;100.00
58927;BME280;44712;52.530;9.760;2023-02-21T03:35:19;100985.38;;;8.33;100.00
58927;BME280;44712;52.530;9.760;2023-02-21T03:37:51;100991.69;;;8.32;100.00
58927;BME280;44712;52.530;9.760;2023-02-21T03:40:25;100983.59;;;8.30;100.00
58927;BME280;44712;52.530;9.760;2023-02-21T03:42:57;100992.56;;;8.32;100.00
58927;BME280;44712;52.530;9.760;2023-02-21T03:45:27;100979.97;;;8.28;100.00
58927;BME280;44712;52.530;9.760;2023-02-21T03:48:03;100995.25;;;8.32;100.00
58927;BME280;44712;52.530;9.760;2023-02-21T03:50:32;100992.56;;;8.31;100.00
58927;BME280;44712;52.530;9.760;2023-02-21T03:52:59;100986.28;;;8.32;100.00
58927;BME280;44712;52.530;9.760;2023-02-21T03:55:27;100980.88;;;8.33;100.00
58927;BME280;44712;52.530;9.760;2023-02-21T03:57:55;100990.78;;;8.31;100.00
58927;BME280;44712;52.530;9.760;2023-02-21T04:00:23;100981.78;;;8.29;100.00
58927;BME280;44712;52.530;9.760;2023-02-21T04:02:52;100980.00;;;8.34;100.00
58927;BME280;44712;52.530;9.760;2023-02-21T04:05:45;100988.09;;;8.31;100.00
58927;BME280;44712;52.530;9.760;2023-02-21T04:08:12;100966.53;;;8.30;100.00
58927;BME280;44712;52.530;9.760;2023-02-21T04:10:40;100979.06;;;8.32;100.00
58927;BME280;44712;52.530;9.760;2023-02-21T04:13:19;100978.19;;;8.30;100.00
58927;BME280;44712;52.530;9.760;2023-02-21T04:15:46;100972.81;;;8.30;100.00
58927;BME280;44712;52.530;9.760;2023-02-21T04:18:14;100975.50;;;8.27;100.00
58927;BME280;44712;52.530;9.760;2023-02-21T04:20:41;100969.19;;;8.28;100.00
58927;BME280;44712;52.530;9.760;2023-02-21T04:23:16;100966.50;;;8.28;100.00
58927;BME280;44712;52.530;9.760;2023-02-21T04:25:45;100971.00;;;8.29;100.00
58927;BME280;44712;52.530;9.760;2023-02-21T04:28:18;100973.69;;;8.32;100.00
58927;BME280;44712;52.530;9.760;2023-02-21T04:30:46;100965.59;;;8.28;100.00
58927;BME280;44712;52.530;9.760;2023-02-21T04:33:13;100967.41;;;8.27;100.00
58927;BME280;44712;52.530;9.760;2023-02-21T04:35:39;100967.41;;;8.27;100.00
58927;BME280;44712;52.530;9.760;2023-02-21T04:38:14;100966.53;;;8.31;100.00
58927;BME280;44712;52.530;9.760;2023-02-21T04:40:41;100972.78;;;8.33;100.00
58927;BME280;44712;52.530;9.760;2023-02-21T04:43:07;100956.59;;;8.33;100.00
58927;BME280;44712;52.530;9.760;2023-02-21T04:45:36;100963.78;;;8.37;100.00
58927;BME280;44712;52.530;9.760;2023-02-21T04:48:02;100974.59;;;8.34;100.00
58927;BME280;44712;52.530;9.760;2023-02-21T04:50:29;100962.00;;;8.33;100.00
58927;BME280;44712;52.530;9.760;2023-02-21T04:52:56;100961.09;;;8.28;100.00
58927;BME280;44712;52.530;9.760;2023-02-21T04:55:22;100957.53;;;8.34;100.00
58927;BME280;44712;52.530;9.760;2023-02-21T04:57:49;100956.59;;;8.33;100.00
58927;BME280;44712;52.530;9.760;2023-02-21T05:00:15;100945.84;;;8.36;100.00
58927;BME280;44712;52.530;9.760;2023-02-21T05:02:43;100948.50;;;8.35;100.00
58927;BME280;44712;52.530;9.760;2023-02-21T05:05:10;100935.06;;;8.36;100.00
58927;BME280;44712;52.530;9.760;2023-02-21T05:07:40;100950.34;;;8.33;100.00
58927;BME280;44712;52.530;9.760;2023-02-21T05:10:07;100955.72;;;8.34;100.00
58927;BME280;44712;52.530;9.760;2023-02-21T05:12:35;100949.41;;;8.38;100.00
58927;BME280;44712;52.530;9.760;2023-02-21T05:15:06;100961.09;;;8.39;100.00
58927;BME280;44712;52.530;9.760;2023-02-21T05:17:33;100944.94;;;8.42;100.00
58927;BME280;44712;52.530;9.760;2023-02-21T05:20:00;100958.41;;;8.37;100.00
58927;BME280;44712;52.530;9.760;2023-02-21T05:22:26;100956.63;;;8.36;100.00
58927;BME280;44712;52.530;9.760;2023-02-21T05:24:53;100953.00;;;8.37;100.00
58927;BME280;44712;52.530;9.760;2023-02-21T05:27:21;100961.09;;;8.37;100.00
58927;BME280;44712;52.530;9.760;2023-02-21T05:29:52;100970.13;;;8.38;100.00
58927;BME280;44712;52.530;9.760;2023-02-21T05:32:20;100960.22;;;8.38;100.00
58927;BME280;44712;52.530;9.760;2023-02-21T05:34:47;100967.41;;;8.41;100.00
58927;BME280;44712;52.530;9.760;2023-02-21T05:37:15;100963.81;;;8.44;100.00
58927;BME280;44712;52.530;9.760;2023-02-21T05:39:42;100965.66;;;8.46;100.00
58927;BME280;44712;52.530;9.760;2023-02-21T05:42:09;100974.63;;;8.48;100.00
58927;BME280;44712;52.530;9.760;2023-02-21T05:44:35;100969.25;;;8.50;100.00
58927;BME280;44712;52.530;9.760;2023-02-21T05:47:02;100969.25;;;8.50;100.00
58927;BME280;44712;52.530;9.760;2023-02-21T05:49:29;100963.81;;;8.48;100.00
58927;BME280;44712;52.530;9.760;2023-02-21T05:52:00;100957.53;;;8.45;100.00
58927;BME280;44712;52.530;9.760;2023-02-21T05:54:29;100964.75;;;8.47;100.00
58927;BME280;44712;52.530;9.760;2023-02-21T05:56:55;100973.75;;;8.52;100.00
58927;BME280;44712;52.530;9.760;2023-02-21T05:59:22;100970.13;;;8.50;100.00
58927;BME280;44712;52.530;9.760;2023-02-21T06:01:50;100970.13;;;8.52;100.00
58927;BME280;44712;52.530;9.760;2023-02-21T06:04:17;100969.22;;;8.53;100.00
58927;BME280;44712;52.530;9.760;2023-02-21T06:06:44;100965.63;;;8.48;100.00
58927;BME280;44712;52.530;9.760;2023-02-21T06:09:11;100973.75;;;8.54;100.00
58927;BME280;44712;52.530;9.760;2023-02-21T06:11:39;100981.81;;;8.54;100.00
58927;BME280;44712;52.530;9.760;2023-02-21T06:14:12;100981.81;;;8.51;100.00
58927;BME280;44712;52.530;9.760;2023-02-21T06:16:39;100980.91;;;8.50;100.00
58927;BME280;44712;52.530;9.760;2023-02-21T06:19:07;100985.44;;;8.50;100.00
58927;BME280;44712;52.530;9.760;2023-02-21T06:21:36;100978.22;;;8.52;100.00
58927;BME280;44712;52.530;9.760;2023-02-21T06:24:04;100983.63;;;8.49;100.00
58927;BME280;44712;52.530;9.760;2023-02-21T06:26:30;100989.94;;;8.54;100.00
58927;BME280;44712;52.530;9.760;2023-02-21T06:28:57;100989.00;;;8.58;100.00
58927;BME280;44712;52.530;9.760;2023-02-21T06:31:24;100997.09;;;8.53;100.00
58927;BME280;44712;52.530;9.760;2023-02-21T06:33:51;101001.59;;;8.56;100.00
58927;BME280;44712;52.530;9.760;2023-02-21T06:36:21;101003.41;;;8.54;100.00
58927;BME280;44712;52.530;9.760;2023-02-21T06:38:49;101004.31;;;8.51;100.00
58927;BME280;44712;52.530;9.760;2023-02-21T06:41:21;101008.78;;;8.57;100.00
58927;BME280;44712;52.530;9.760;2023-02-21T06:43:51;101007.88;;;8.63;100.00
58927;BME280;44712;52.530;9.760;2023-02-21T06:46:20;101001.59;;;8.62;100.00
58927;BME280;44712;52.530;9.760;2023-02-21T06:48:48;101012.41;;;8.59;100.00
58927;BME280;44712;52.530;9.760;2023-02-21T06:51:15;101014.19;;;8.57;100.00
58927;BME280;44712;52.530;9.760;2023-02-21T06:53:43;101024.06;;;8.53;100.00
58927;BME280;44712;52.530;9.760;2023-02-21T06:56:10;101020.47;;;8.58;100.00
58927;BME280;44712;52.530;9.760;2023-02-21T06:58:37;101026.75;;;8.55;100.00
58927;BME280;44712;52.530;9.760;2023-02-21T07:01:04;101030.38;;;8.57;100.00
58927;BME280;44712;52.530;9.760;2023-02-21T07:03:30;101033.97;;;8.56;100.00
58927;BME280;44712;52.530;9.760;2023-02-21T07:05:58;101035.78;;;8.59;100.00
58927;BME280;44712;52.530;9.760;2023-02-21T07:08:26;101040.28;;;8.57;100.00
58927;BME280;44712;52.530;9.760;2023-02-21T07:10:52;101047.47;;;8.56;100.00
58927;BME280;44712;52.530;9.760;2023-02-21T07:13:20;101051.97;;;8.60;100.00
58927;BME280;44712;52.530;9.760;2023-02-21T07:15:48;101051.97;;;8.59;100.00
58927;BME280;44712;52.530;9.760;2023-02-21T07:18:14;101051.06;;;8.61;100.00
58927;BME280;44712;52.530;9.760;2023-02-21T07:20:41;101052.88;;;8.61;100.00
58927;BME280;44712;52.530;9.760;2023-02-21T07:23:08;101050.16;;;8.65;100.00
58927;BME280;44712;52.530;9.760;2023-02-21T07:25:34;101045.66;;;8.63;100.00
58927;BME280;44712;52.530;9.760;2023-02-21T07:28:01;101053.75;;;8.63;100.00
58927;BME280;44712;52.530;9.760;2023-02-21T07:30:29;101050.16;;;8.65;100.00
58927;BME280;44712;52.530;9.760;2023-02-21T07:32:57;101046.56;;;8.69;100.00
58927;BME280;44712;52.530;9.760;2023-02-21T07:35:24;101055.56;;;8.62;100.00
58927;BME280;44712;52.530;9.760;2023-02-21T07:37:51;101055.56;;;8.65;100.00
58927;BME280;44712;52.530;9.760;2023-02-21T07:40:17;101062.78;;;8.63;100.00
58927;BME280;44712;52.530;9.760;2023-02-21T07:42:44;101065.47;;;8.65;100.00
58927;BME280;44712;52.530;9.760;2023-02-21T07:45:13;101066.38;;;8.62;100.00
58927;BME280;44712;52.530;9.760;2023-02-21T07:47:41;101069.06;;;8.62;100.00
58927;BME280;44712;52.530;9.760;2023-02-21T07:50:10;101073.56;;;8.63;100.00
58927;BME280;44712;52.530;9.760;2023-02-21T07:52:38;101073.56;;;8.63;100.00
58927;BME280;44712;52.530;9.760;2023-02-21T07:55:05;101075.34;;;8.70;100.00
58927;BME280;44712;52.530;9.760;2023-02-21T07:57:31;101077.16;;;8.71;100.00
58927;BME280;44712;52.530;9.760;2023-02-21T07:59:58;101078.94;;;8.69;100.00
58927;BME280;44712;52.530;9.760;2023-02-21T08:02:25;101082.53;;;8.68;100.00
58927;BME280;44712;52.530;9.760;2023-02-21T08:04:52;101084.34;;;8.66;100.00
58927;BME280;44712;52.530;9.760;2023-02-21T08:07:19;101086.16;;;8.67;100.00
58927;BME280;44712;52.530;9.760;2023-02-21T08:09:46;101089.75;;;8.69;100.00
58927;BME280;44712;52.530;9.760;2023-02-21T08:12:12;101096.03;;;8.68;100.00
58927;BME280;44712;52.530;9.760;2023-02-21T08:14:39;101094.25;;;8.72;100.00
58927;BME280;44712;52.530;9.760;2023-02-21T08:17:05;101092.47;;;8.74;100.00
58927;BME280;44712;52.530;9.760;2023-02-21T08:19:32;101088.84;;;8.72;100.00
58927;BME280;44712;52.530;9.760;2023-02-21T08:21:59;101094.25;;;8.72;100.00
58927;BME280;44712;52.530;9.760;2023-02-21T08:24:25;101092.44;;;8.77;100.00
58927;BME280;44712;52.530;9.760;2023-02-21T08:26:52;101096.97;;;8.77;100.00
58927;BME280;44712;52.530;9.760;2023-02-21T08:29:19;101095.13;;;8.79;100.00
58927;BME280;44712;52.530;9.760;2023-02-21T08:31:46;101104.16;;;8.81;100.00
58927;BME280;44712;52.530;9.760;2023-02-21T08:34:14;101101.44;;;8.78;100.00
58927;BME280;44712;52.530;9.760;2023-02-21T08:36:41;101113.13;;;8.80;100.00
58927;BME280;44712;52.530;9.760;2023-02-21T08:39:09;101106.84;;;8.81;100.00
58927;BME280;44712;52.530;9.760;2023-02-21T08:41:37;101102.34;;;8.80;100.00
58927;BME280;44712;52.530;9.760;2023-02-21T08:44:05;101111.34;;;8.83;100.00
58927;BME280;44712;52.530;9.760;2023-02-21T08:46:32;101111.34;;;8.82;100.00
58927;BME280;44712;52.530;9.760;2023-02-21T08:49:00;101107.72;;;8.83;100.00
58927;BME280;44712;52.530;9.760;2023-02-21T08:51:29;101111.34;;;8.82;100.00
58927;BME280;44712;52.530;9.760;2023-02-21T08:53:56;101117.63;;;8.87;100.00
58927;BME280;44712;52.530;9.760;2023-02-21T08:56:23;101132.94;;;8.85;100.00
58927;BME280;44712;52.530;9.760;2023-02-21T08:58:53;101130.22;;;8.88;100.00
58927;BME280;44712;52.530;9.760;2023-02-21T09:01:21;101132.03;;;8.87;100.00
58927;BME280;44712;52.530;9.760;2023-02-21T09:03:48;101127.53;;;8.91;100.00
58927;BME280;44712;52.530;9.760;2023-02-21T09:06:16;101123.03;;;8.93;100.00
58927;BME280;44712;52.530;9.760;2023-02-21T09:08:43;101133.81;;;8.98;100.00
58927;BME280;44712;52.530;9.760;2023-02-21T09:11:09;101123.94;;;8.98;100.00
58927;BME280;44712;52.530;9.760;2023-02-21T09:13:36;101123.97;;;8.95;100.00
58927;BME280;44712;52.530;9.760;2023-02-21T09:16:03;101126.63;;;9.00;100.00
58927;BME280;44712;52.530;9.760;2023-02-21T09:18:30;101131.16;;;8.99;100.00
58927;BME280;44712;52.530;9.760;2023-02-21T09:20:57;101129.34;;;9.01;100.00
58927;BME280;44712;52.530;9.760;2023-02-21T09:23:26;101125.72;;;9.05;100.00
58927;BME280;44712;52.530;9.760;2023-02-21T09:25:54;101124.84;;;9.05;100.00
58927;BME280;44712;52.530;9.760;2023-02-21T09:28:21;101125.75;;;9.02;100.00
58927;BME280;44712;52.530;9.760;2023-02-21T09:30:48;101127.53;;;9.05;100.00
58927;BME280;44712;52.530;9.760;2023-02-21T09:33:15;101120.31;;;9.05;100.00
58927;BME280;44712;52.530;9.760;2023-02-21T09:35:42;101121.22;;;9.03;100.00
58927;BME280;44712;52.530;9.760;2023-02-21T09:38:09;101119.44;;;9.00;100.00
58927;BME280;44712;52.530;9.760;2023-02-21T09:40:48;101124.84;;;9.03;100.00
58927;BME280;44712;52.530;9.760;2023-02-21T09:43:21;101125.72;;;9.05;100.00
58927;BME280;44712;52.530;9.760;2023-02-21T09:45:53;101120.34;;;9.10;100.00
58927;BME280;44712;52.530;9.760;2023-02-21T09:48:22;101121.22;;;9.17;100.00
58927;BME280;44712;52.530;9.760;2023-02-21T09:50:53;101126.63;;;9.18;100.00
58927;BME280;44712;52.530;9.760;2023-02-21T09:53:32;101131.13;;;9.24;100.00
58927;BME280;44712;52.530;9.760;2023-02-21T09:56:06;101114.00;;;9.27;100.00
58927;BME280;44712;52.530;9.760;2023-02-21T09:58:34;101126.63;;;9.25;100.00
58927;BME280;44712;52.530;9.760;2023-02-21T10:01:07;101116.72;;;9.25;100.00
58927;BME280;44712;52.530;9.760;2023-02-21T10:03:43;101117.63;;;9.29;100.00
58927;BME280;44712;52.530;9.760;2023-02-21T10:12:02;101114.00;;;9.37;100.00
58927;BME280;44712;52.530;9.760;2023-02-21T10:17:28;101126.56;;;9.43;100.00
58927;BME280;44712;52.530;9.760;2023-02-21T10:20:02;101128.38;;;9.58;100.00
58927;BME280;44712;52.530;9.760;2023-02-21T10:22:33;101125.66;;;9.52;100.00
58927;BME280;44712;52.530;9.760;2023-02-21T10:25:19;101127.47;;;9.56;100.00
58927;BME280;44712;52.530;9.760;2023-02-21T10:27:48;101130.16;;;9.62;100.00
58927;BME280;44712;52.530;9.760;2023-02-21T10:30:29;101131.03;;;9.64;100.00
58927;BME280;44712;52.530;9.760;2023-02-21T10:32:59;101132.84;;;9.65;100.00
58927;BME280;44712;52.530;9.760;2023-02-21T10:35:25;101133.72;;;9.72;100.00
58927;BME280;44712;52.530;9.760;2023-02-21T10:37:56;101131.94;;;9.69;100.00
58927;BME280;44712;52.530;9.760;2023-02-21T10:40:44;101137.31;;;9.71;100.00
58927;BME280;44712;52.530;9.760;2023-02-21T10:45:50;101130.06;;;9.88;100.00
58927;BME280;44712;52.530;9.760;2023-02-21T10:48:20;101139.94;;;10.03;100.00
58927;BME280;44712;52.530;9.760;2023-02-21T10:51:05;101134.47;;;10.16;100.00
58927;BME280;44712;52.530;9.760;2023-02-21T10:53:37;101136.19;;;10.29;100.00
58927;BME280;44712;52.530;9.760;2023-02-21T10:59:02;101137.97;;;10.33;100.00
58927;BME280;44712;52.530;9.760;2023-02-21T11:01:36;101135.28;;;10.36;100.00
58927;BME280;44712;52.530;9.760;2023-02-21T11:04:21;101141.56;;;10.42;100.00
58927;BME280;44712;52.530;9.760;2023-02-21T11:06:50;101148.72;;;10.49;100.00
58927;BME280;44712;52.530;9.760;2023-02-21T11:09:27;101142.41;;;10.48;100.00
58927;BME280;44712;52.530;9.760;2023-02-21T11:12:14;101143.31;;;10.49;100.00
58927;BME280;44712;52.530;9.760;2023-02-21T11:17:23;101143.25;;;10.61;100.00
58927;BME280;44712;52.530;9.760;2023-02-21T11:22:19;101140.56;;;10.61;100.00
58927;BME280;44712;52.530;9.760;2023-02-21T11:27:34;101141.47;;;10.57;100.00
58927;BME280;44712;52.530;9.760;2023-02-21T11:30:08;101134.22;;;10.62;100.00
58927;BME280;44712;52.530;9.760;2023-02-21T11:32:38;101142.28;;;10.73;100.00
58927;BME280;44712;52.530;9.760;2023-02-21T11:37:56;101144.91;;;10.81;100.00
58927;BME280;44712;52.530;9.760;2023-02-21T11:40:43;101143.09;;;10.83;100.00
58927;BME280;44712;52.530;9.760;2023-02-21T11:43:30;101147.56;;;10.87;100.00
58927;BME280;44712;52.530;9.760;2023-02-21T11:46:15;101132.25;;;10.83;100.00
58927;BME280;44712;52.530;9.760;2023-02-21T11:51:20;101146.84;;;10.66;100.00
58927;BME280;44712;52.530;9.760;2023-02-21T11:53:50;101143.25;;;10.61;100.00
58927;BME280;44712;52.530;9.760;2023-02-21T12:24:01;101127.72;;;10.88;100.00
58927;BME280;44712;52.530;9.760;2023-02-21T12:26:47;101129.53;;;10.86;100.00
58927;BME280;44712;52.530;9.760;2023-02-21T12:29:51;101130.44;;;10.83;100.00
58927;BME280;44712;52.530;9.760;2023-02-21T12:32:31;101126.88;;;10.77;100.00
58927;BME280;44712;52.530;9.760;2023-02-21T12:37:47;101113.09;;;11.06;100.00
58927;BME280;44712;52.530;9.760;2023-02-21T12:46:02;101117.19;;;11.49;100.00
58927;BME280;44712;52.530;9.760;2023-02-21T12:48:45;101111.66;;;11.61;100.00
58927;BME280;44712;52.530;9.760;2023-02-21T12:51:17;101116.19;;;11.61;99.87
58927;BME280;44712;52.530;9.760;2023-02-21T12:53:54;101120.88;;;11.45;100.00
58927;BME280;44712;52.530;9.760;2023-02-21T12:56:34;101104.69;;;11.38;100.00
58927;BME280;44712;52.530;9.760;2023-02-21T12:59:10;101110.22;;;11.26;100.00
58927;BME280;44712;52.530;9.760;2023-02-21T13:01:43;101100.28;;;11.28;100.00
58927;BME280;44712;52.530;9.760;2023-02-21T13:04:23;101104.81;;;11.28;100.00
58927;BME280;44712;52.530;9.760;2023-02-21T13:07:19;101107.47;;;11.31;100.00
58927;BME280;44712;52.530;9.760;2023-02-21T13:10:00;101104.59;;;11.48;99.60
58927;BME280;44712;52.530;9.760;2023-02-21T13:12:39;101102.94;;;11.34;99.70
58927;BME280;44712;52.530;9.760;2023-02-21T13:15:19;101112.00;;;11.29;100.00
58927;BME280;44712;52.530;9.760;2023-02-21T13:17:54;101111.25;;;11.11;100.00
58927;BME280;44712;52.530;9.760;2023-02-21T13:20:24;101110.38;;;11.11;100.00
58927;BME280;44712;52.530;9.760;2023-02-21T13:26:46;101103.19;;;11.07;100.00
58927;BME280;44712;52.530;9.760;2023-02-21T13:29:22;101094.22;;;11.00;99.52
58927;BME280;44712;52.530;9.760;2023-02-21T13:32:05;101099.66;;;10.95;100.00
58927;BME280;44712;52.530;9.760;2023-02-21T13:34:39;101095.25;;;10.86;100.00
58927;BME280;44712;52.530;9.760;2023-02-21T13:37:20;101099.72;;;10.86;100.00
58927;BME280;44712;52.530;9.760;2023-02-21T13:39:56;101099.66;;;10.95;100.00
58927;BME280;44712;52.530;9.760;2023-02-21T13:42:28;101104.16;;;10.98;100.00
58927;BME280;44712;52.530;9.760;2023-02-21T13:55:35;101101.50;;;10.93;100.00
58927;BME280;44712;52.530;9.760;2023-02-21T14:08:23;101095.25;;;10.86;100.00
58927;BME280;44712;52.530;9.760;2023-02-21T14:10:54;101088.91;;;10.89;100.00
58927;BME280;44712;52.530;9.760;2023-02-21T14:13:41;101092.50;;;10.85;100.00
58927;BME280;44712;52.530;9.760;2023-02-21T14:16:21;101090.78;;;10.78;100.00
58927;BME280;44712;52.530;9.760;2023-02-21T14:18:57;101089.91;;;10.74;100.00
58927;BME280;44712;52.530;9.760;2023-02-21T14:26:43;101096.34;;;10.59;100.00
58927;BME280;44712;52.530;9.760;2023-02-21T14:39:43;101085.56;;;10.53;100.00
58927;BME280;44712;52.530;9.760;2023-02-21T14:42:18;101088.25;;;10.54;100.00
58927;BME280;44712;52.530;9.760;2023-02-21T15:09:33;101094.63;;;10.46;100.00
58927;BME280;44712;52.530;9.760;2023-02-21T15:12:00;101094.63;;;10.46;100.00
58927;BME280;44712;52.530;9.760;2023-02-21T15:14:29;101082.06;;;10.38;100.00
58927;BME280;44712;52.530;9.760;2023-02-21T15:17:13;101091.97;;;10.38;100.00
58927;BME280;44712;52.530;9.760;2023-02-21T15:19:42;101098.31;;;10.29;100.00
58927;BME280;44712;52.530;9.760;2023-02-21T15:22:24;101091.13;;;10.22;100.00
58927;BME280;44712;52.530;9.760;2023-02-21T15:27:51;101092.97;;;10.14;100.00
58927;BME280;44712;52.530;9.760;2023-02-21T15:33:05;101092.97;;;10.20;100.00
58927;BME280;44712;52.530;9.760;2023-02-21T15:35:44;101098.38;;;10.14;100.00
58927;BME280;44712;52.530;9.760;2023-02-21T15:40:47;101096.56;;;10.19;100.00
58927;BME280;44712;52.530;9.760;2023-02-21T15:46:19;101086.72;;;10.05;100.00
58927;BME280;44712;52.530;9.760;2023-02-21T15:48:49;101098.47;;;10.00;100.00
58927;BME280;44712;52.530;9.760;2023-02-21T15:51:16;101101.16;;;10.01;100.00
58927;BME280;44712;52.530;9.760;2023-02-21T15:54:07;101093.97;;;9.93;100.00
58927;BME280;44712;52.530;9.760;2023-02-21T15:56:34;101098.47;;;9.95;100.00
58927;BME280;44712;52.530;9.760;2023-02-21T16:01:44;101094.03;;;9.85;100.00
58927;BME280;44712;52.530;9.760;2023-02-21T16:04:16;101095.81;;;9.86;100.00
58927;BME280;44712;52.530;9.760;2023-02-21T16:06:46;101097.59;;;9.88;100.00
58927;BME280;44712;52.530;9.760;2023-02-21T16:11:53;101105.72;;;9.87;100.00